Time;durP1;ratioP1;P1;durP2;ratioP2;P2;SDS_P1;SDS_P2;PMS_P1;PMS_P2;Temp;Humidity;BMP_temperature;BMP_pressure;BME280_temperature;BME280_humidity;BME280_pressure;Samples;Min_cycle;Max_cycle;Signal;HPM_P1;HPM_P2
2021/03/28 00:01:41;;;;;;;19.40;4.57;;;;;;;;;;5132409;27;20452;-78
2021/03/28 00:04:09;;;;;;;21.80;4.43;;;;;;;;;;5130707;27;20039;-78
2021/03/28 00:06:37;;;;;;;25.02;4.40;;;;;;;;;;5131937;27;20037;-77
2021/03/28 00:09:08;;;;;;;18.77;4.72;;;;;;;;;;5132141;27;20447;-78
2021/03/28 00:11:37;;;;;;;20.77;5.05;;;;;;;;;;5139851;27;20206;-77
2021/03/28 00:14:04;;;;;;;20.50;5.05;;;;;;;;;;5143161;27;20485;-78
2021/03/28 00:16:33;;;;;;;17.88;4.30;;;;;;;;;;5148081;27;20091;-78
2021/03/28 00:19:20;;;;;;;18.85;4.43;;;;;;;;;;5135831;27;20046;-77
2021/03/28 00:21:46;;;;;;;15.00;4.45;;;;;;;;;;5135570;27;20135;-78
2021/03/28 00:24:12;;;;;;;19.90;4.68;;;;;;;;;;5131571;27;20124;-78
2021/03/28 00:26:40;;;;;;;27.10;4.85;;;;;;;;;;5132892;27;20039;-78
2021/03/28 00:29:12;;;;;;;21.10;4.82;;;;;;;;;;5134649;27;20470;-78
2021/03/28 00:31:58;;;;;;;19.98;4.72;;;;;;;;;;5132095;27;20043;-78
2021/03/28 00:34:38;;;;;;;19.80;5.07;;;;;;;;;;5131748;27;20047;-77
2021/03/28 00:37:08;;;;;;;24.88;5.18;;;;;;;;;;5130230;27;20134;-78
2021/03/28 00:39:48;;;;;;;21.13;4.57;;;;;;;;;;5130532;27;20034;-77
2021/03/28 00:42:33;;;;;;;16.58;4.57;;;;;;;;;;5130042;27;20035;-78
2021/03/28 00:45:18;;;;;;;24.55;4.68;;;;;;;;;;5129913;27;20035;-76
2021/03/28 00:47:48;;;;;;;23.02;4.82;;;;;;;;;;5150047;27;20043;-77
2021/03/28 00:50:23;;;;;;;21.65;5.05;;;;;;;;;;5132167;27;20050;-78
2021/03/28 00:52:54;;;;;;;30.15;5.30;;;;;;;;;;5128309;27;20051;-77
2021/03/28 00:55:23;;;;;;;25.45;5.35;;;;;;;;;;5133216;27;20470;-78
2021/03/28 00:58:08;;;;;;;25.48;4.70;;;;;;;;;;5134032;27;20081;-77
2021/03/28 01:00:46;;;;;;;19.40;4.72;;;;;;;;;;5123326;27;20062;-78
2021/03/28 01:03:45;;;;;;;22.98;5.25;;;;;;;;;;5131386;27;20100;-78
2021/03/28 01:06:23;;;;;;;23.60;4.95;;;;;;;;;;5131758;27;20050;-78
2021/03/28 01:08:56;;;;;;;32.95;5.28;;;;;;;;;;5131367;27;20078;-78
2021/03/28 01:11:22;;;;;;;29.77;7.00;;;;;;;;;;5131592;27;20061;-78
2021/03/28 01:14:01;;;;;;;27.45;5.82;;;;;;;;;;5131211;27;20042;-78
2021/03/28 01:16:36;;;;;;;30.63;5.20;;;;;;;;;;5129615;27;20034;-77
2021/03/28 01:19:09;;;;;;;31.67;5.63;;;;;;;;;;5124860;27;20043;-78
2021/03/28 01:21:53;;;;;;;19.75;5.40;;;;;;;;;;5132135;27;20180;-77
2021/03/28 01:24:38;;;;;;;29.60;5.88;;;;;;;;;;5129983;27;20420;-78
2021/03/28 01:27:23;;;;;;;26.58;6.28;;;;;;;;;;5131386;27;20042;-77
2021/03/28 01:29:49;;;;;;;26.50;5.82;;;;;;;;;;5128094;27;20055;-77
2021/03/28 01:32:34;;;;;;;32.35;5.43;;;;;;;;;;5132541;27;20099;-77
2021/03/28 01:35:00;;;;;;;27.75;6.93;;;;;;;;;;5129818;27;20050;-77
2021/03/28 01:37:30;;;;;;;31.77;6.45;;;;;;;;;;5132267;27;20043;-77
2021/03/28 01:40:09;;;;;;;33.67;6.55;;;;;;;;;;5131641;27;20039;-78
2021/03/28 01:42:42;;;;;;;21.33;5.53;;;;;;;;;;5129595;27;20037;-77
2021/03/28 01:45:17;;;;;;;34.17;6.03;;;;;;;;;;5130362;27;20031;-78
2021/03/28 01:47:46;;;;;;;30.15;6.35;;;;;;;;;;5129001;27;20031;-78
2021/03/28 01:50:23;;;;;;;29.75;6.68;;;;;;;;;;5131268;27;20059;-77
2021/03/28 01:52:55;;;;;;;39.42;7.05;;;;;;;;;;5129487;27;20383;-79
2021/03/28 01:55:24;;;;;;;23.17;6.50;;;;;;;;;;5129912;27;20055;-78
2021/03/28 01:57:57;;;;;;;31.17;7.80;;;;;;;;;;5130697;27;20426;-78
2021/03/28 02:00:39;;;;;;;28.88;6.07;;;;;;;;;;5131017;27;20039;-78
2021/03/28 02:03:27;;;;;;;28.58;5.43;;;;;;;;;;5129712;27;20043;-78
2021/03/28 02:06:01;;;;;;;30.60;6.35;;;;;;;;;;5129141;27;20486;-78
2021/03/28 02:08:33;;;;;;;24.35;6.55;;;;;;;;;;5132345;27;20055;-77
2021/03/28 02:11:14;;;;;;;36.28;6.43;;;;;;;;;;5130617;27;20467;-78
2021/03/28 02:13:52;;;;;;;33.72;6.13;;;;;;;;;;5130992;27;20039;-78
2021/03/28 02:16:26;;;;;;;28.60;6.35;;;;;;;;;;5127581;27;20133;-78
2021/03/28 02:18:59;;;;;;;35.03;7.47;;;;;;;;;;5130409;27;20398;-78
2021/03/28 02:21:43;;;;;;;30.73;6.40;;;;;;;;;;5131968;27;20087;-78
2021/03/28 02:24:15;;;;;;;39.95;7.18;;;;;;;;;;5131353;27;20091;-78
2021/03/28 02:26:46;;;;;;;30.33;6.95;;;;;;;;;;5135188;27;20045;-78
2021/03/28 02:29:24;;;;;;;23.30;7.03;;;;;;;;;;5147005;27;20042;-78
2021/03/28 02:32:08;;;;;;;30.50;6.20;;;;;;;;;;5129973;27;20043;-77
2021/03/28 02:34:41;;;;;;;34.00;7.75;;;;;;;;;;5129985;27;20047;-76
2021/03/28 02:37:10;;;;;;;23.92;7.00;;;;;;;;;;5129673;27;20067;-77
2021/03/28 02:39:39;;;;;;;23.00;6.65;;;;;;;;;;5130429;27;20082;-77
2021/03/28 02:42:14;;;;;;;29.17;6.10;;;;;;;;;;5130651;28;20424;-78
2021/03/28 02:44:44;;;;;;;26.60;7.03;;;;;;;;;;5128553;27;20046;-76
2021/03/28 02:47:27;;;;;;;31.05;6.68;;;;;;;;;;5129793;27;20027;-77
2021/03/28 02:49:53;;;;;;;22.42;6.65;;;;;;;;;;5129891;27;20115;-76
2021/03/28 02:52:25;;;;;;;28.05;6.45;;;;;;;;;;5129623;28;20059;-78
2021/03/28 02:55:10;;;;;;;30.50;6.15;;;;;;;;;;5130689;27;20078;-78
2021/03/28 02:57:45;;;;;;;30.20;6.43;;;;;;;;;;5142090;27;20068;-79
2021/03/28 03:00:20;;;;;;;22.75;6.05;;;;;;;;;;5140734;27;20042;-76
2021/03/28 03:02:48;;;;;;;27.42;6.93;;;;;;;;;;5130641;27;20098;-78
2021/03/28 03:05:18;;;;;;;23.02;6.10;;;;;;;;;;5130631;27;20107;-77
2021/03/28 03:07:52;;;;;;;28.30;5.78;;;;;;;;;;5130153;27;20034;-77
2021/03/28 03:10:37;;;;;;;26.83;5.88;;;;;;;;;;5132357;27;20058;-77
2021/03/28 03:13:30;;;;;;;34.67;6.82;;;;;;;;;;5127418;27;20039;-77
2021/03/28 03:16:15;;;;;;;23.42;6.22;;;;;;;;;;5129717;27;20035;-77
2021/03/28 03:19:00;;;;;;;30.02;6.30;;;;;;;;;;5129511;27;20038;-78
2021/03/28 03:21:54;;;;;;;33.25;7.22;;;;;;;;;;5130633;27;20383;-78
2021/03/28 03:24:39;;;;;;;28.80;6.40;;;;;;;;;;5129051;27;20114;-78
2021/03/28 03:27:11;;;;;;;35.80;6.85;;;;;;;;;;5123705;27;20263;-76
2021/03/28 03:29:46;;;;;;;27.63;6.53;;;;;;;;;;5144512;27;20496;-77
2021/03/28 03:32:21;;;;;;;25.30;6.10;;;;;;;;;;5129532;27;20233;-77
2021/03/28 03:35:17;;;;;;;27.73;6.22;;;;;;;;;;5132411;27;20178;-77
2021/03/28 03:37:43;;;;;;;23.15;6.05;;;;;;;;;;5115195;27;20078;-77
2021/03/28 03:40:16;;;;;;;27.05;5.82;;;;;;;;;;5128663;28;20035;-77
2021/03/28 03:42:42;;;;;;;24.33;6.60;;;;;;;;;;5128623;27;20039;-77
2021/03/28 03:45:25;;;;;;;26.95;6.40;;;;;;;;;;5128424;27;20127;-77
2021/03/28 03:48:04;;;;;;;21.40;6.00;;;;;;;;;;5128783;27;20039;-77
2021/03/28 03:50:30;;;;;;;21.20;6.50;;;;;;;;;;5127884;27;20035;-78
2021/03/28 03:53:06;;;;;;;35.35;5.93;;;;;;;;;;5129646;27;20043;-77
2021/03/28 03:55:39;;;;;;;23.70;5.32;;;;;;;;;;5134427;27;20134;-78
2021/03/28 03:58:26;;;;;;;27.50;6.25;;;;;;;;;;5148852;27;20524;-78
2021/03/28 04:00:55;;;;;;;25.20;6.25;;;;;;;;;;5133528;27;20039;-77
2021/03/28 04:03:21;;;;;;;20.88;5.97;;;;;;;;;;5132953;27;20047;-77
2021/03/28 04:06:10;;;;;;;21.30;6.10;;;;;;;;;;5133011;27;20085;-77
2021/03/28 04:08:49;;;;;;;31.30;5.10;;;;;;;;;;5130417;27;20061;-77
2021/03/28 04:11:15;;;;;;;25.10;6.45;;;;;;;;;;5133922;27;20039;-78
2021/03/28 04:13:56;;;;;;;27.83;5.88;;;;;;;;;;5133630;27;20039;-78
2021/03/28 04:16:28;;;;;;;29.63;6.63;;;;;;;;;;5131252;27;20039;-77
2021/03/28 04:19:14;;;;;;;25.20;6.20;;;;;;;;;;5129769;27;20269;-77
2021/03/28 04:21:58;;;;;;;24.60;5.85;;;;;;;;;;5133186;27;20049;-78
2021/03/28 04:24:42;;;;;;;27.25;6.10;;;;;;;;;;5136191;27;20031;-78
2021/03/28 04:27:14;;;;;;;25.13;5.60;;;;;;;;;;5153532;27;20043;-77
2021/03/28 04:29:48;;;;;;;27.48;6.57;;;;;;;;;;5134056;27;20042;-77
2021/03/28 04:32:14;;;;;;;;;;;;;;;;;;5133377;27;20039;-78
2021/03/28 04:34:59;;;;;;;24.70;5.35;;;;;;;;;;5133815;27;19958;-78
2021/03/28 04:37:37;;;;;;;28.08;7.20;;;;;;;;;;5132204;27;20035;-76
2021/03/28 04:40:22;;;;;;;28.63;6.30;;;;;;;;;;5129207;27;20047;-76
2021/03/28 04:43:07;;;;;;;30.60;6.10;;;;;;;;;;5132975;27;20043;-76
2021/03/28 04:45:33;;;;;;;26.75;6.55;;;;;;;;;;5133053;27;20107;-75
2021/03/28 04:48:02;;;;;;;32.35;7.00;;;;;;;;;;5129380;27;20045;-77
2021/03/28 04:50:47;;;;;;;21.40;5.40;;;;;;;;;;5132299;27;20100;-76
2021/03/28 04:53:16;;;;;;;27.23;5.82;;;;;;;;;;5129794;27;20035;-76
2021/03/28 04:56:01;;;;;;;24.80;5.90;;;;;;;;;;5132787;27;20069;-76
2021/03/28 04:58:27;;;;;;;29.27;6.18;;;;;;;;;;5134453;27;20043;-76
2021/03/28 05:01:08;;;;;;;23.70;6.25;;;;;;;;;;5135420;27;20039;-77
2021/03/28 05:03:53;;;;;;;32.75;6.45;;;;;;;;;;5132033;27;20058;-76
2021/03/28 05:06:22;;;;;;;25.95;6.15;;;;;;;;;;5136760;27;20038;-76
2021/03/28 05:08:55;;;;;;;25.02;5.60;;;;;;;;;;5133598;27;20053;-77
2021/03/28 05:11:40;;;;;;;19.92;5.60;;;;;;;;;;5130098;27;20163;-77
2021/03/28 05:14:25;;;;;;;24.52;6.45;;;;;;;;;;5131954;27;20548;-77
2021/03/28 05:16:51;;;;;;;30.13;7.35;;;;;;;;;;5129214;27;20050;-76
2021/03/28 05:19:36;;;;;;;28.88;6.55;;;;;;;;;;5128632;27;20248;-77
2021/03/28 05:22:08;;;;;;;26.98;7.28;;;;;;;;;;5134358;27;20068;-77
2021/03/28 05:24:45;;;;;;;26.77;6.10;;;;;;;;;;5132573;27;20485;-77
2021/03/28 05:27:17;;;;;;;23.10;5.97;;;;;;;;;;5141086;27;20031;-77
2021/03/28 05:30:02;;;;;;;34.30;6.25;;;;;;;;;;5137576;27;20035;-77
2021/03/28 05:32:37;;;;;;;26.92;6.45;;;;;;;;;;5131654;27;20102;-77
2021/03/28 05:35:26;;;;;;;27.88;6.38;;;;;;;;;;5135717;27;20055;-75
2021/03/28 05:38:01;;;;;;;30.58;6.20;;;;;;;;;;5131785;27;20051;-75
2021/03/28 05:40:37;;;;;;;24.60;7.05;;;;;;;;;;5131819;27;20066;-76
2021/03/28 05:43:03;;;;;;;28.02;7.18;;;;;;;;;;5132206;27;20071;-77
2021/03/28 05:45:46;;;;;;;22.55;6.15;;;;;;;;;;5133000;27;20061;-76
2021/03/28 05:48:22;;;;;;;30.30;7.80;;;;;;;;;;5130064;27;20046;-76
2021/03/28 05:50:55;;;;;;;31.30;7.50;;;;;;;;;;5131114;27;20067;-77
2021/03/28 05:53:24;;;;;;;30.95;7.78;;;;;;;;;;5131616;27;20486;-77
2021/03/28 05:55:53;;;;;;;26.55;7.20;;;;;;;;;;5132327;27;20135;-78
2021/03/28 05:58:29;;;;;;;19.02;5.35;;;;;;;;;;5143711;27;20122;-77
2021/03/28 06:01:14;;;;;;;27.08;5.68;;;;;;;;;;5133481;27;20054;-77
2021/03/28 06:03:59;;;;;;;22.08;5.35;;;;;;;;;;5132201;27;20130;-77
2021/03/28 06:06:40;;;;;;;26.70;6.22;;;;;;;;;;5138009;27;20042;-76
2021/03/28 06:09:27;;;;;;;22.10;6.68;;;;;;;;;;5128491;27;20027;-77
2021/03/28 06:11:56;;;;;;;22.33;5.53;;;;;;;;;;5130838;27;20050;-78
2021/03/28 06:14:41;;;;;;;21.10;5.85;;;;;;;;;;5128704;27;20190;-77
2021/03/28 06:17:26;;;;;;;19.15;5.20;;;;;;;;;;5127576;27;20091;-77
2021/03/28 06:20:11;;;;;;;16.13;4.82;;;;;;;;;;5129946;27;20038;-77
2021/03/28 06:22:37;;;;;;;23.10;5.55;;;;;;;;;;5131588;27;20069;-78
2021/03/28 06:25:21;;;;;;;15.65;4.95;;;;;;;;;;5118332;27;20482;-77
2021/03/28 06:28:06;;;;;;;16.52;5.10;;;;;;;;;;5149133;27;20089;-77
2021/03/28 06:30:41;;;;;;;23.38;5.20;;;;;;;;;;5122887;27;20144;-76
2021/03/28 06:33:07;;;;;;;15.50;4.35;;;;;;;;;;5121938;27;20371;-75
2021/03/28 06:35:33;;;;;;;17.80;5.32;;;;;;;;;;5122827;27;20348;-74
2021/03/28 06:38:09;;;;;;;20.63;5.53;;;;;;;;;;5116773;28;20493;-77
2021/03/28 06:40:45;;;;;;;19.23;4.93;;;;;;;;;;5122150;28;20119;-77
2021/03/28 06:43:20;;;;;;;24.30;5.15;;;;;;;;;;5116453;28;20047;-77
2021/03/28 06:45:46;;;;;;;14.98;4.75;;;;;;;;;;5123187;28;20046;-77
2021/03/28 06:48:21;;;;;;;20.85;4.97;;;;;;;;;;5141506;27;20044;-81
2021/03/28 06:50:58;;;;;;;18.13;5.32;;;;;;;;;;5127632;27;20035;-87
2021/03/28 06:53:43;;;;;;;16.80;5.53;;;;;;;;;;5126365;28;20043;-77
2021/03/28 06:56:18;;;;;;;31.77;5.97;;;;;;;;;;5129713;28;20138;-77
2021/03/28 06:58:44;;;;;;;19.42;4.90;;;;;;;;;;5130291;27;20087;-77
2021/03/28 07:01:27;;;;;;;17.05;4.75;;;;;;;;;;5127700;28;20043;-76
2021/03/28 07:03:59;;;;;;;23.02;6.07;;;;;;;;;;5127037;27;20039;-80
2021/03/28 07:06:40;;;;;;;16.65;4.72;;;;;;;;;;5124401;28;20038;-81
2021/03/28 07:09:13;;;;;;;17.40;4.68;;;;;;;;;;5128764;27;20051;-77
2021/03/28 07:11:58;;;;;;;20.25;5.82;;;;;;;;;;5128031;28;20043;-77
2021/03/28 07:14:42;;;;;;;21.55;4.55;;;;;;;;;;5127014;27;20053;-76
2021/03/28 07:17:27;;;;;;;17.25;5.20;;;;;;;;;;5129035;27;20039;-79
2021/03/28 07:20:15;;;;;;;20.80;4.80;;;;;;;;;;5127994;27;20438;-84
2021/03/28 07:22:41;;;;;;;18.05;4.45;;;;;;;;;;5127208;28;20043;-77
2021/03/28 07:25:20;;;;;;;14.73;5.32;;;;;;;;;;5129149;27;20448;-78
2021/03/28 07:28:01;;;;;;;17.63;5.20;;;;;;;;;;5132018;27;20038;-73
2021/03/28 07:30:51;;;;;;;17.30;4.32;;;;;;;;;;5131747;27;20050;-78
2021/03/28 07:33:28;;;;;;;14.43;4.05;;;;;;;;;;5099378;27;20050;-78
2021/03/28 07:35:54;;;;;;;19.55;5.00;;;;;;;;;;5132353;27;20046;-77
2021/03/28 07:38:39;;;;;;;16.52;3.83;;;;;;;;;;5131339;27;20031;-78
2021/03/28 07:41:22;;;;;;;20.88;4.47;;;;;;;;;;5129939;27;20058;-77
2021/03/28 07:44:08;;;;;;;17.65;3.47;;;;;;;;;;5133589;27;20051;-79
2021/03/28 07:46:57;;;;;;;14.50;3.55;;;;;;;;;;5130808;27;20036;-81
2021/03/28 07:49:42;;;;;;;17.08;3.80;;;;;;;;;;5135142;27;20047;-81
2021/03/28 07:52:11;;;;;;;16.45;4.15;;;;;;;;;;5136544;27;20075;-81
2021/03/28 07:54:48;;;;;;;18.77;3.80;;;;;;;;;;5126401;27;20039;-81
2021/03/28 07:57:36;;;;;;;14.02;3.25;;;;;;;;;;5132694;27;20462;-82
2021/03/28 08:00:09;;;;;;;13.95;3.38;;;;;;;;;;5136057;27;20040;-83
2021/03/28 08:02:56;;;;;;;13.52;3.22;;;;;;;;;;5134617;27;20064;-83
2021/03/28 08:05:44;;;;;;;15.18;3.40;;;;;;;;;;5134438;27;20134;-82
2021/03/28 08:08:28;;;;;;;14.45;2.78;;;;;;;;;;5134666;27;20149;-82
2021/03/28 08:10:54;;;;;;;;;;;;;;;;;;5136377;27;20119;-82
2021/03/28 08:13:35;;;;;;;13.68;3.40;;;;;;;;;;5135151;27;19972;-82
2021/03/28 08:16:24;;;;;;;12.73;3.15;;;;;;;;;;5134775;27;20462;-82
2021/03/28 08:18:56;;;;;;;15.32;2.80;;;;;;;;;;5156556;27;20099;-82
2021/03/28 08:21:32;;;;;;;10.93;2.90;;;;;;;;;;5122106;27;20118;-82
2021/03/28 08:24:07;;;;;;;16.08;3.80;;;;;;;;;;5137570;27;20047;-83
2021/03/28 08:26:47;;;;;;;14.48;3.78;;;;;;;;;;5134084;27;20445;-83
2021/03/28 08:29:42;;;;;;;12.65;3.30;;;;;;;;;;5135169;27;20042;-83
2021/03/28 08:32:20;;;;;;;16.00;3.45;;;;;;;;;;5121044;27;20062;-81
2021/03/28 08:35:10;;;;;;;13.23;2.85;;;;;;;;;;5132789;27;20055;-83
2021/03/28 08:37:51;;;;;;;11.75;3.25;;;;;;;;;;5132071;27;20437;-81
2021/03/28 08:40:36;;;;;;;16.02;2.80;;;;;;;;;;5134323;27;20043;-81
2021/03/28 08:43:08;;;;;;;10.73;2.70;;;;;;;;;;5134101;27;20038;-82
2021/03/28 08:45:54;;;;;;;14.57;3.03;;;;;;;;;;5133751;27;20394;-82
2021/03/28 08:48:20;;;;;;;11.23;3.90;;;;;;;;;;5128518;27;20092;-83
2021/03/28 08:50:47;;;;;;;11.95;3.08;;;;;;;;;;5113564;28;20040;-83
2021/03/28 08:53:25;;;;;;;13.88;2.80;;;;;;;;;;5132078;27;20050;-83
2021/03/28 08:56:11;;;;;;;10.82;2.33;;;;;;;;;;5127135;27;20043;-84
2021/03/28 08:58:57;;;;;;;13.75;3.20;;;;;;;;;;5132372;27;20450;-84
2021/03/28 09:01:27;;;;;;;10.00;3.30;;;;;;;;;;5092632;27;20093;-82
2021/03/28 09:04:02;;;;;;;14.13;3.03;;;;;;;;;;5135011;27;20570;-85
2021/03/28 09:06:47;;;;;;;12.05;3.47;;;;;;;;;;5134180;27;20035;-85
2021/03/28 09:09:22;;;;;;;12.02;3.78;;;;;;;;;;5132452;27;20046;-84
2021/03/28 09:11:58;;;;;;;12.93;2.88;;;;;;;;;;5133629;27;20047;-84
2021/03/28 09:14:34;;;;;;;14.88;3.15;;;;;;;;;;5120566;27;20454;-83
2021/03/28 09:17:20;;;;;;;14.25;3.05;;;;;;;;;;5118869;27;20047;-84
2021/03/28 09:19:49;;;;;;;11.43;2.63;;;;;;;;;;5089390;27;20336;-84
2021/03/28 09:22:27;;;;;;;12.15;3.45;;;;;;;;;;5133993;27;20066;-85
2021/03/28 09:25:04;;;;;;;11.93;2.90;;;;;;;;;;5135263;27;20054;-84
2021/03/28 09:27:33;;;;;;;13.52;3.55;;;;;;;;;;5134155;27;20031;-84
2021/03/28 09:30:05;;;;;;;12.40;3.00;;;;;;;;;;5134477;27;20485;-83
2021/03/28 09:32:51;;;;;;;11.93;3.30;;;;;;;;;;5133382;27;20205;-82
2021/03/28 09:35:17;;;;;;;11.07;3.40;;;;;;;;;;5133369;27;20083;-84
2021/03/28 09:37:59;;;;;;;11.18;3.70;;;;;;;;;;5134757;27;20050;-84
2021/03/28 09:40:45;;;;;;;8.05;2.70;;;;;;;;;;5120000;27;20121;-84
2021/03/28 09:43:35;;;;;;;13.70;3.50;;;;;;;;;;5123586;27;20042;-85
2021/03/28 09:46:21;;;;;;;7.65;2.67;;;;;;;;;;5103836;28;20049;-84
2021/03/28 09:49:00;;;;;;;9.40;2.67;;;;;;;;;;5145464;27;20039;-85
2021/03/28 09:51:46;;;;;;;14.30;2.97;;;;;;;;;;5135337;27;20039;-85
2021/03/28 09:54:18;;;;;;;14.95;3.03;;;;;;;;;;5133913;27;20118;-86
2021/03/28 09:57:04;;;;;;;13.63;3.17;;;;;;;;;;5133382;27;20492;-85
2021/03/28 09:59:30;;;;;;;12.50;2.65;;;;;;;;;;5133992;27;20039;-85
2021/03/28 10:01:57;;;;;;;18.23;3.25;;;;;;;;;;5134488;27;20043;-85
2021/03/28 10:04:41;;;;;;;10.35;2.72;;;;;;;;;;5134008;27;20039;-85
2021/03/28 10:07:08;;;;;;;8.90;2.85;;;;;;;;;;5134156;27;20047;-85
2021/03/28 10:09:53;;;;;;;8.70;2.30;;;;;;;;;;5132962;27;20398;-83
2021/03/28 10:12:23;;;;;;;9.30;2.50;;;;;;;;;;5132989;27;20043;-83
2021/03/28 10:14:52;;;;;;;10.93;3.28;;;;;;;;;;5131284;27;20043;-84
2021/03/28 10:17:39;;;;;;;9.20;2.72;;;;;;;;;;5116177;27;20043;-85
2021/03/28 10:20:11;;;;;;;10.60;2.75;;;;;;;;;;5119133;27;20055;-84
2021/03/28 10:22:56;;;;;;;11.68;2.70;;;;;;;;;;5132550;27;20039;-84
2021/03/28 10:25:26;;;;;;;11.85;3.20;;;;;;;;;;5133889;27;20058;-84
2021/03/28 10:27:58;;;;;;;15.02;3.10;;;;;;;;;;5131490;27;20064;-83
2021/03/28 10:30:43;;;;;;;18.02;3.10;;;;;;;;;;5132397;27;20112;-82
2021/03/28 10:33:28;;;;;;;10.45;3.33;;;;;;;;;;5132665;27;20424;-84
2021/03/28 10:36:13;;;;;;;14.85;3.15;;;;;;;;;;5130362;27;20043;-84
2021/03/28 10:38:58;;;;;;;13.70;3.45;;;;;;;;;;5120656;27;20545;-84
2021/03/28 10:41:36;;;;;;;12.00;3.67;;;;;;;;;;5133609;27;20046;-85
2021/03/28 10:44:17;;;;;;;11.70;3.20;;;;;;;;;;5133872;28;20047;-83
2021/03/28 10:46:53;;;;;;;13.45;3.10;;;;;;;;;;5131464;28;20133;-84
2021/03/28 10:49:22;;;;;;;11.00;3.03;;;;;;;;;;5139176;28;20050;-84
2021/03/28 10:52:07;;;;;;;11.77;3.22;;;;;;;;;;5137370;28;20047;-83
2021/03/28 10:54:45;;;;;;;14.45;3.40;;;;;;;;;;5121504;28;20187;-85
2021/03/28 10:57:23;;;;;;;12.43;3.95;;;;;;;;;;5145304;28;20040;-84
2021/03/28 11:00:08;;;;;;;18.88;3.65;;;;;;;;;;5142483;28;20053;-84
2021/03/28 11:03:06;;;;;;;11.80;3.95;;;;;;;;;;5145331;27;20054;-84
2021/03/28 11:05:50;;;;;;;12.55;3.15;;;;;;;;;;5142969;27;20457;-84
2021/03/28 11:08:43;;;;;;;17.05;3.90;;;;;;;;;;5140445;27;20047;-83
2021/03/28 11:11:29;;;;;;;15.63;4.55;;;;;;;;;;5097538;28;20052;-84
2021/03/28 11:14:14;;;;;;;20.05;4.60;;;;;;;;;;5119473;27;20126;-83
2021/03/28 11:17:03;;;;;;;16.90;4.13;;;;;;;;;;5141480;27;20448;-77
2021/03/28 11:19:32;;;;;;;12.48;3.42;;;;;;;;;;5130141;27;20055;-84
2021/03/28 11:22:07;;;;;;;15.70;3.72;;;;;;;;;;5138393;27;20039;-83
2021/03/28 11:24:33;;;;;;;14.52;3.47;;;;;;;;;;5138399;27;20039;-82
2021/03/28 11:27:09;;;;;;;13.18;4.15;;;;;;;;;;5137431;27;20047;-83
2021/03/28 11:29:47;;;;;;;15.30;4.00;;;;;;;;;;5124198;27;20474;-82
2021/03/28 11:32:16;;;;;;;19.42;3.83;;;;;;;;;;5129829;27;20054;-82
2021/03/28 11:35:05;;;;;;;22.67;4.18;;;;;;;;;;5134871;27;20059;-77
2021/03/28 11:37:41;;;;;;;16.77;4.60;;;;;;;;;;5136933;27;20047;-81
2021/03/28 11:40:08;;;;;;;14.68;4.22;;;;;;;;;;5136326;27;20493;-80
2021/03/28 11:42:35;;;;;;;17.25;3.90;;;;;;;;;;5136617;27;20039;-79
2021/03/28 11:45:02;;;;;;;20.15;4.28;;;;;;;;;;5135889;27;20390;-80
2021/03/28 11:47:36;;;;;;;19.60;3.92;;;;;;;;;;5135450;27;20036;-81
2021/03/28 11:50:14;;;;;;;14.25;2.95;;;;;;;;;;5135788;27;20063;-81
2021/03/28 11:52:57;;;;;;;17.73;3.67;;;;;;;;;;5136261;27;20051;-80
2021/03/28 11:55:26;;;;;;;18.42;3.80;;;;;;;;;;5135842;27;20047;-81
2021/03/28 11:58:09;;;;;;;18.25;3.88;;;;;;;;;;5114560;28;20051;-81
2021/03/28 12:00:43;;;;;;;20.08;3.42;;;;;;;;;;5135727;27;20035;-82
2021/03/28 12:03:15;;;;;;;20.67;4.28;;;;;;;;;;5135736;27;20493;-83
2021/03/28 12:06:02;;;;;;;21.02;5.03;;;;;;;;;;5136151;27;20432;-82
2021/03/28 12:08:33;;;;;;;13.50;3.90;;;;;;;;;;5134680;27;20035;-82
2021/03/28 12:11:19;;;;;;;20.20;4.40;;;;;;;;;;5133703;27;20055;-81
2021/03/28 12:13:49;;;;;;;24.33;5.22;;;;;;;;;;5134310;27;20472;-78
2021/03/28 12:16:15;;;;;;;20.25;4.65;;;;;;;;;;5115430;28;20403;-81
2021/03/28 12:18:45;;;;;;;18.70;4.38;;;;;;;;;;5131298;27;20043;-82
2021/03/28 12:21:23;;;;;;;22.15;4.05;;;;;;;;;;5134123;27;20039;-82
2021/03/28 12:23:49;;;;;;;16.85;4.68;;;;;;;;;;5135207;27;20067;-80
2021/03/28 12:26:20;;;;;;;20.92;3.90;;;;;;;;;;5115518;27;20466;-81
2021/03/28 12:28:47;;;;;;;21.00;5.40;;;;;;;;;;5116449;27;20402;-80
2021/03/28 12:31:32;;;;;;;22.73;4.45;;;;;;;;;;5133122;27;20046;-81
2021/03/28 12:33:58;;;;;;;;;;;;;;;;;;5118020;27;20055;-81
2021/03/28 12:36:24;;;;;;;17.90;4.25;;;;;;;;;;5114923;28;19949;-81
2021/03/28 12:38:54;;;;;;;22.70;4.13;;;;;;;;;;5121697;27;20039;-76
2021/03/28 12:41:23;;;;;;;16.48;4.10;;;;;;;;;;5135426;27;20036;-82
2021/03/28 12:43:49;;;;;;;19.67;3.90;;;;;;;;;;5133997;27;20043;-79
2021/03/28 12:46:39;;;;;;;20.05;4.03;;;;;;;;;;5135452;27;20363;-82
2021/03/28 12:49:09;;;;;;;19.27;4.50;;;;;;;;;;5107643;27;20059;-81
2021/03/28 12:51:40;;;;;;;20.65;4.00;;;;;;;;;;5134739;27;20442;-81
2021/03/28 12:54:26;;;;;;;19.45;4.47;;;;;;;;;;5133637;27;20043;-82
2021/03/28 12:56:57;;;;;;;20.25;3.97;;;;;;;;;;5132954;27;20089;-76
2021/03/28 12:59:38;;;;;;;21.80;3.72;;;;;;;;;;5133282;27;20047;-82
2021/03/28 13:02:11;;;;;;;21.58;3.53;;;;;;;;;;5134389;27;20091;-82
2021/03/28 13:04:38;;;;;;;22.00;4.38;;;;;;;;;;5134612;27;20047;-82
2021/03/28 13:07:05;;;;;;;17.25;3.55;;;;;;;;;;5133135;27;20039;-81
2021/03/28 13:09:36;;;;;;;18.70;3.47;;;;;;;;;;5132715;27;20115;-82
2021/03/28 13:12:11;;;;;;;21.38;3.30;;;;;;;;;;5134076;27;20096;-81
2021/03/28 13:14:39;;;;;;;18.27;3.70;;;;;;;;;;5134274;27;20039;-80
2021/03/28 13:17:14;;;;;;;18.80;3.70;;;;;;;;;;5132324;27;20046;-81
2021/03/28 13:19:42;;;;;;;22.83;3.58;;;;;;;;;;5126722;27;20039;-81
2021/03/28 13:22:23;;;;;;;20.15;3.53;;;;;;;;;;5131753;27;20111;-83
2021/03/28 13:24:49;;;;;;;18.77;3.15;;;;;;;;;;5133598;27;20040;-82
2021/03/28 13:27:20;;;;;;;22.50;4.07;;;;;;;;;;5133566;27;20239;-81
2021/03/28 13:29:57;;;;;;;15.02;3.25;;;;;;;;;;5133848;27;20046;-81
2021/03/28 13:32:27;;;;;;;13.80;3.55;;;;;;;;;;5134017;27;20124;-81
2021/03/28 13:34:59;;;;;;;23.88;4.22;;;;;;;;;;5132556;27;20061;-81
2021/03/28 13:37:29;;;;;;;20.35;3.40;;;;;;;;;;5132873;27;20066;-83
2021/03/28 13:40:19;;;;;;;20.45;4.13;;;;;;;;;;5133294;27;20496;-81
2021/03/28 13:42:48;;;;;;;21.95;3.85;;;;;;;;;;5134011;27;20042;-81
2021/03/28 13:45:17;;;;;;;23.27;4.75;;;;;;;;;;5131831;27;20047;-81
2021/03/28 13:48:02;;;;;;;19.40;3.70;;;;;;;;;;5133161;27;20192;-81
2021/03/28 13:50:28;;;;;;;18.08;3.78;;;;;;;;;;5134343;27;20043;-81
2021/03/28 13:52:55;;;;;;;21.02;4.28;;;;;;;;;;5132875;27;20440;-82
2021/03/28 13:55:34;;;;;;;21.27;3.85;;;;;;;;;;5131739;27;20039;-82
2021/03/28 13:58:22;;;;;;;21.40;4.30;;;;;;;;;;5133050;27;20039;-78
2021/03/28 14:00:54;;;;;;;22.77;3.38;;;;;;;;;;5133403;27;20214;-82
2021/03/28 14:03:28;;;;;;;19.50;4.10;;;;;;;;;;5132118;27;20262;-82
2021/03/28 14:05:55;;;;;;;13.27;4.07;;;;;;;;;;5132897;27;20546;-81
2021/03/28 14:08:23;;;;;;;20.25;3.55;;;;;;;;;;5131291;27;20196;-81
2021/03/28 14:10:56;;;;;;;20.02;4.13;;;;;;;;;;5132973;27;20043;-82
2021/03/28 14:13:33;;;;;;;18.73;3.30;;;;;;;;;;5128928;27;20043;-82
2021/03/28 14:16:02;;;;;;;24.65;4.90;;;;;;;;;;5133504;27;20038;-82
2021/03/28 14:18:40;;;;;;;23.08;3.95;;;;;;;;;;5133995;27;20122;-82
2021/03/28 14:21:11;;;;;;;22.90;3.97;;;;;;;;;;5132218;27;20119;-82
2021/03/28 14:23:58;;;;;;;23.92;3.80;;;;;;;;;;5131700;27;20074;-81
2021/03/28 14:26:30;;;;;;;21.42;4.78;;;;;;;;;;5112569;27;20135;-82
2021/03/28 14:28:56;;;;;;;25.10;4.65;;;;;;;;;;5112328;28;20090;-82
2021/03/28 14:31:32;;;;;;;22.90;3.67;;;;;;;;;;5125000;27;20035;-81
2021/03/28 14:34:01;;;;;;;25.42;4.40;;;;;;;;;;5131780;27;20050;-81
2021/03/28 14:36:50;;;;;;;23.10;4.85;;;;;;;;;;5132197;27;20045;-82
2021/03/28 14:39:16;;;;;;;23.92;4.28;;;;;;;;;;5130798;27;20422;-82
2021/03/28 14:41:47;;;;;;;29.27;5.40;;;;;;;;;;5131784;27;20043;-82
2021/03/28 14:44:19;;;;;;;24.20;4.63;;;;;;;;;;5132419;28;20386;-83
2021/03/28 14:47:02;;;;;;;25.95;4.40;;;;;;;;;;5131998;28;20054;-82
2021/03/28 14:49:41;;;;;;;24.50;4.40;;;;;;;;;;5132626;28;20046;-82
2021/03/28 14:52:16;;;;;;;25.55;3.75;;;;;;;;;;5131844;28;20057;-81
2021/03/28 14:54:52;;;;;;;29.20;4.93;;;;;;;;;;5132545;28;20047;-82
2021/03/28 14:57:21;;;;;;;26.33;4.25;;;;;;;;;;5131944;28;20126;-83
2021/03/28 14:59:50;;;;;;;29.98;4.22;;;;;;;;;;5132432;28;20055;-82
2021/03/28 15:02:35;;;;;;;19.80;4.30;;;;;;;;;;5132297;28;20118;-82
2021/03/28 15:05:04;;;;;;;23.63;4.70;;;;;;;;;;5132575;28;20458;-82
2021/03/28 15:07:42;;;;;;;21.70;4.38;;;;;;;;;;5122828;28;20035;-83
2021/03/28 15:10:21;;;;;;;25.88;4.55;;;;;;;;;;5130519;28;20050;-76
2021/03/28 15:12:59;;;;;;;34.28;4.78;;;;;;;;;;5131467;28;20043;-82
2021/03/28 15:15:38;;;;;;;28.70;5.32;;;;;;;;;;5130714;28;20378;-82
2021/03/28 15:18:22;;;;;;;24.27;3.63;;;;;;;;;;5127271;28;20043;-82
2021/03/28 15:21:08;;;;;;;22.77;4.38;;;;;;;;;;5118550;28;20044;-82
2021/03/28 15:23:54;;;;;;;33.90;4.50;;;;;;;;;;5132052;27;20469;-81
2021/03/28 15:26:40;;;;;;;27.63;5.28;;;;;;;;;;5129072;28;20042;-81